sensor_id;sensor_type;location;lat;lon;timestamp;P1;durP1;ratioP1;P2;durP2;ratioP2
21593;SDS011;10959;51.328;7.322;2023-04-29T00:00:19;22.27;;;18.23;;
21593;SDS011;10959;51.328;7.322;2023-04-29T00:02:45;22.00;;;18.67;;
21593;SDS011;10959;51.328;7.322;2023-04-29T00:05:11;25.73;;;20.67;;
21593;SDS011;10959;51.328;7.322;2023-04-29T00:07:39;27.90;;;21.23;;
21593;SDS011;10959;51.328;7.322;2023-04-29T00:10:06;25.03;;;19.63;;
21593;SDS011;10959;51.328;7.322;2023-04-29T00:12:33;26.63;;;21.87;;
21593;SDS011;10959;51.328;7.322;2023-04-29T00:15:00;30.53;;;24.10;;
21593;SDS011;10959;51.328;7.322;2023-04-29T00:17:28;28.53;;;22.20;;
21593;SDS011;10959;51.328;7.322;2023-04-29T00:19:56;28.57;;;23.07;;
21593;SDS011;10959;51.328;7.322;2023-04-29T00:22:22;32.07;;;25.93;;
21593;SDS011;10959;51.328;7.322;2023-04-29T00:24:50;28.83;;;23.20;;
21593;SDS011;10959;51.328;7.322;2023-04-29T00:27:17;34.63;;;28.40;;
21593;SDS011;10959;51.328;7.322;2023-04-29T00:29:43;32.27;;;26.93;;
21593;SDS011;10959;51.328;7.322;2023-04-29T00:32:10;32.47;;;25.70;;
21593;SDS011;10959;51.328;7.322;2023-04-29T00:34:36;30.50;;;24.80;;
21593;SDS011;10959;51.328;7.322;2023-04-29T00:37:03;30.73;;;25.47;;
21593;SDS011;10959;51.328;7.322;2023-04-29T00:39:29;31.33;;;25.50;;
21593;SDS011;10959;51.328;7.322;2023-04-29T00:41:57;30.17;;;24.70;;
21593;SDS011;10959;51.328;7.322;2023-04-29T00:44:24;31.40;;;26.00;;
21593;SDS011;10959;51.328;7.322;2023-04-29T00:46:50;30.53;;;24.97;;
21593;SDS011;10959;51.328;7.322;2023-04-29T00:49:16;27.17;;;23.63;;
21593;SDS011;10959;51.328;7.322;2023-04-29T00:51:43;31.37;;;25.80;;
21593;SDS011;10959;51.328;7.322;2023-04-29T00:54:10;29.63;;;24.03;;
21593;SDS011;10959;51.328;7.322;2023-04-29T00:56:37;32.93;;;27.03;;
21593;SDS011;10959;51.328;7.322;2023-04-29T00:59:07;32.07;;;26.13;;
21593;SDS011;10959;51.328;7.322;2023-04-29T01:01:36;28.80;;;23.50;;
21593;SDS011;10959;51.328;7.322;2023-04-29T01:04:03;30.73;;;23.53;;
21593;SDS011;10959;51.328;7.322;2023-04-29T01:06:33;31.73;;;26.10;;
21593;SDS011;10959;51.328;7.322;2023-04-29T01:09:15;27.03;;;22.17;;
21593;SDS011;10959;51.328;7.322;2023-04-29T01:11:52;35.03;;;26.97;;
21593;SDS011;10959;51.328;7.322;2023-04-29T01:14:42;30.37;;;24.20;;
21593;SDS011;10959;51.328;7.322;2023-04-29T01:17:14;30.03;;;24.93;;
21593;SDS011;10959;51.328;7.322;2023-04-29T01:19:45;31.20;;;26.60;;
21593;SDS011;10959;51.328;7.322;2023-04-29T01:22:15;29.63;;;25.70;;
21593;SDS011;10959;51.328;7.322;2023-04-29T01:24:45;34.40;;;26.93;;
21593;SDS011;10959;51.328;7.322;2023-04-29T01:27:13;35.43;;;27.70;;
21593;SDS011;10959;51.328;7.322;2023-04-29T01:29:50;36.00;;;27.13;;
21593;SDS011;10959;51.328;7.322;2023-04-29T01:32:23;38.63;;;28.13;;
21593;SDS011;10959;51.328;7.322;2023-04-29T01:34:58;35.27;;;28.07;;
21593;SDS011;10959;51.328;7.322;2023-04-29T01:37:32;35.97;;;27.10;;
21593;SDS011;10959;51.328;7.322;2023-04-29T01:40:07;42.67;;;32.97;;
21593;SDS011;10959;51.328;7.322;2023-04-29T01:42:38;41.83;;;31.40;;
21593;SDS011;10959;51.328;7.322;2023-04-29T01:45:09;48.00;;;34.30;;
21593;SDS011;10959;51.328;7.322;2023-04-29T01:47:36;44.60;;;32.93;;
21593;SDS011;10959;51.328;7.322;2023-04-29T01:50:05;46.87;;;34.10;;
21593;SDS011;10959;51.328;7.322;2023-04-29T01:52:32;49.13;;;34.80;;
21593;SDS011;10959;51.328;7.322;2023-04-29T01:54:58;48.13;;;34.20;;
21593;SDS011;10959;51.328;7.322;2023-04-29T01:57:26;47.03;;;33.00;;
21593;SDS011;10959;51.328;7.322;2023-04-29T01:59:52;51.93;;;35.97;;
21593;SDS011;10959;51.328;7.322;2023-04-29T02:02:19;45.03;;;33.33;;
21593;SDS011;10959;51.328;7.322;2023-04-29T02:04:47;50.63;;;35.27;;
21593;SDS011;10959;51.328;7.322;2023-04-29T02:07:14;45.83;;;32.83;;
21593;SDS011;10959;51.328;7.322;2023-04-29T02:09:41;43.20;;;31.57;;
21593;SDS011;10959;51.328;7.322;2023-04-29T02:12:07;41.03;;;31.97;;
21593;SDS011;10959;51.328;7.322;2023-04-29T02:14:36;38.10;;;28.07;;
21593;SDS011;10959;51.328;7.322;2023-04-29T02:17:02;39.13;;;29.17;;
21593;SDS011;10959;51.328;7.322;2023-04-29T02:19:29;49.07;;;33.27;;
21593;SDS011;10959;51.328;7.322;2023-04-29T02:21:55;48.00;;;33.87;;
21593;SDS011;10959;51.328;7.322;2023-04-29T02:24:21;44.67;;;32.10;;
21593;SDS011;10959;51.328;7.322;2023-04-29T02:26:48;47.40;;;30.87;;
21593;SDS011;10959;51.328;7.322;2023-04-29T02:29:14;45.67;;;32.27;;
21593;SDS011;10959;51.328;7.322;2023-04-29T02:31:42;49.13;;;34.17;;
21593;SDS011;10959;51.328;7.322;2023-04-29T02:34:09;54.43;;;37.10;;
21593;SDS011;10959;51.328;7.322;2023-04-29T02:36:35;48.60;;;33.17;;
21593;SDS011;10959;51.328;7.322;2023-04-29T02:39:02;57.80;;;36.63;;
21593;SDS011;10959;51.328;7.322;2023-04-29T02:41:28;58.77;;;36.70;;
21593;SDS011;10959;51.328;7.322;2023-04-29T02:43:54;55.83;;;35.33;;
21593;SDS011;10959;51.328;7.322;2023-04-29T02:46:21;62.13;;;36.93;;
21593;SDS011;10959;51.328;7.322;2023-04-29T02:48:49;53.57;;;34.60;;
21593;SDS011;10959;51.328;7.322;2023-04-29T02:51:15;52.00;;;33.07;;
21593;SDS011;10959;51.328;7.322;2023-04-29T02:53:41;50.40;;;30.33;;
21593;SDS011;10959;51.328;7.322;2023-04-29T02:56:08;44.73;;;29.87;;
21593;SDS011;10959;51.328;7.322;2023-04-29T02:58:34;50.20;;;33.87;;
21593;SDS011;10959;51.328;7.322;2023-04-29T03:01:01;50.53;;;33.27;;
21593;SDS011;10959;51.328;7.322;2023-04-29T03:03:27;46.60;;;30.33;;
21593;SDS011;10959;51.328;7.322;2023-04-29T03:05:55;43.23;;;29.13;;
21593;SDS011;10959;51.328;7.322;2023-04-29T03:08:21;43.87;;;28.50;;
21593;SDS011;10959;51.328;7.322;2023-04-29T03:10:48;50.93;;;29.30;;
21593;SDS011;10959;51.328;7.322;2023-04-29T03:13:14;40.70;;;25.77;;
21593;SDS011;10959;51.328;7.322;2023-04-29T03:15:41;35.50;;;22.00;;
21593;SDS011;10959;51.328;7.322;2023-04-29T03:18:08;34.43;;;21.70;;
21593;SDS011;10959;51.328;7.322;2023-04-29T03:20:34;38.20;;;23.63;;
21593;SDS011;10959;51.328;7.322;2023-04-29T03:23:02;37.27;;;23.00;;
21593;SDS011;10959;51.328;7.322;2023-04-29T03:25:29;37.53;;;23.73;;
21593;SDS011;10959;51.328;7.322;2023-04-29T03:27:55;40.60;;;26.10;;
21593;SDS011;10959;51.328;7.322;2023-04-29T03:30:22;42.93;;;27.63;;
21593;SDS011;10959;51.328;7.322;2023-04-29T03:32:48;54.23;;;31.53;;
21593;SDS011;10959;51.328;7.322;2023-04-29T03:35:15;44.20;;;27.20;;
21593;SDS011;10959;51.328;7.322;2023-04-29T03:37:41;49.43;;;30.90;;
21593;SDS011;10959;51.328;7.322;2023-04-29T03:40:11;45.00;;;28.20;;
21593;SDS011;10959;51.328;7.322;2023-04-29T03:42:38;40.70;;;27.57;;
21593;SDS011;10959;51.328;7.322;2023-04-29T03:45:05;42.93;;;26.10;;
21593;SDS011;10959;51.328;7.322;2023-04-29T03:47:32;38.70;;;24.90;;
21593;SDS011;10959;51.328;7.322;2023-04-29T03:49:59;34.70;;;21.60;;
21593;SDS011;10959;51.328;7.322;2023-04-29T03:52:26;31.37;;;20.97;;
21593;SDS011;10959;51.328;7.322;2023-04-29T03:54:53;28.77;;;19.43;;
21593;SDS011;10959;51.328;7.322;2023-04-29T03:57:20;26.67;;;18.37;;
21593;SDS011;10959;51.328;7.322;2023-04-29T03:59:47;26.77;;;18.00;;
21593;SDS011;10959;51.328;7.322;2023-04-29T04:02:14;25.23;;;17.63;;
21593;SDS011;10959;51.328;7.322;2023-04-29T04:04:40;24.20;;;16.40;;
21593;SDS011;10959;51.328;7.322;2023-04-29T04:07:07;23.27;;;16.63;;
21593;SDS011;10959;51.328;7.322;2023-04-29T04:09:33;22.60;;;17.57;;
21593;SDS011;10959;51.328;7.322;2023-04-29T04:11:59;21.80;;;16.30;;
21593;SDS011;10959;51.328;7.322;2023-04-29T04:14:27;22.67;;;16.60;;
21593;SDS011;10959;51.328;7.322;2023-04-29T04:16:54;21.33;;;15.93;;
21593;SDS011;10959;51.328;7.322;2023-04-29T04:19:20;20.27;;;15.77;;
21593;SDS011;10959;51.328;7.322;2023-04-29T04:21:47;22.53;;;17.33;;
21593;SDS011;10959;51.328;7.322;2023-04-29T04:24:13;24.10;;;18.13;;
21593;SDS011;10959;51.328;7.322;2023-04-29T04:26:40;25.27;;;19.33;;
21593;SDS011;10959;51.328;7.322;2023-04-29T04:29:06;24.00;;;18.80;;
21593;SDS011;10959;51.328;7.322;2023-04-29T04:31:34;22.90;;;17.40;;
21593;SDS011;10959;51.328;7.322;2023-04-29T04:34:00;22.10;;;18.00;;
21593;SDS011;10959;51.328;7.322;2023-04-29T04:36:27;28.13;;;21.07;;
21593;SDS011;10959;51.328;7.322;2023-04-29T04:38:53;24.57;;;17.97;;
21593;SDS011;10959;51.328;7.322;2023-04-29T04:41:20;22.97;;;17.53;;
21593;SDS011;10959;51.328;7.322;2023-04-29T04:43:46;23.13;;;15.77;;
21593;SDS011;10959;51.328;7.322;2023-04-29T04:46:14;22.63;;;16.97;;
21593;SDS011;10959;51.328;7.322;2023-04-29T04:48:42;21.60;;;16.50;;
21593;SDS011;10959;51.328;7.322;2023-04-29T04:51:09;22.80;;;17.67;;
21593;SDS011;10959;51.328;7.322;2023-04-29T04:53:36;22.07;;;16.30;;
21593;SDS011;10959;51.328;7.322;2023-04-29T04:56:02;19.97;;;15.83;;
21593;SDS011;10959;51.328;7.322;2023-04-29T04:58:30;23.37;;;16.83;;
21593;SDS011;10959;51.328;7.322;2023-04-29T05:00:56;22.10;;;16.10;;
21593;SDS011;10959;51.328;7.322;2023-04-29T05:03:23;21.30;;;16.17;;
21593;SDS011;10959;51.328;7.322;2023-04-29T05:05:53;26.93;;;20.00;;
21593;SDS011;10959;51.328;7.322;2023-04-29T05:08:19;20.10;;;17.07;;
21593;SDS011;10959;51.328;7.322;2023-04-29T05:10:46;22.47;;;17.50;;
21593;SDS011;10959;51.328;7.322;2023-04-29T05:13:12;21.57;;;16.70;;
21593;SDS011;10959;51.328;7.322;2023-04-29T05:15:38;19.33;;;15.57;;
21593;SDS011;10959;51.328;7.322;2023-04-29T05:18:05;23.27;;;17.70;;
21593;SDS011;10959;51.328;7.322;2023-04-29T05:20:32;23.97;;;17.43;;
21593;SDS011;10959;51.328;7.322;2023-04-29T05:22:59;25.50;;;18.23;;
21593;SDS011;10959;51.328;7.322;2023-04-29T05:25:26;22.80;;;18.57;;
21593;SDS011;10959;51.328;7.322;2023-04-29T05:27:52;21.63;;;15.97;;
21593;SDS011;10959;51.328;7.322;2023-04-29T05:30:19;20.30;;;15.80;;
21593;SDS011;10959;51.328;7.322;2023-04-29T05:32:45;22.33;;;17.23;;
21593;SDS011;10959;51.328;7.322;2023-04-29T05:35:12;21.07;;;18.13;;
21593;SDS011;10959;51.328;7.322;2023-04-29T05:37:39;25.43;;;18.60;;
21593;SDS011;10959;51.328;7.322;2023-04-29T05:40:08;21.97;;;18.13;;
21593;SDS011;10959;51.328;7.322;2023-04-29T05:42:35;25.27;;;19.67;;
21593;SDS011;10959;51.328;7.322;2023-04-29T05:45:01;26.60;;;20.70;;
21593;SDS011;10959;51.328;7.322;2023-04-29T05:47:28;29.60;;;23.00;;
21593;SDS011;10959;51.328;7.322;2023-04-29T05:49:54;27.40;;;21.23;;
21593;SDS011;10959;51.328;7.322;2023-04-29T05:52:21;27.27;;;20.30;;
21593;SDS011;10959;51.328;7.322;2023-04-29T05:54:47;31.57;;;21.53;;
21593;SDS011;10959;51.328;7.322;2023-04-29T05:57:15;26.63;;;21.80;;
21593;SDS011;10959;51.328;7.322;2023-04-29T05:59:41;28.67;;;22.23;;
21593;SDS011;10959;51.328;7.322;2023-04-29T06:02:08;27.37;;;22.90;;
21593;SDS011;10959;51.328;7.322;2023-04-29T06:04:36;35.57;;;27.10;;
21593;SDS011;10959;51.328;7.322;2023-04-29T06:07:05;32.87;;;25.47;;
21593;SDS011;10959;51.328;7.322;2023-04-29T06:09:33;29.67;;;23.17;;
21593;SDS011;10959;51.328;7.322;2023-04-29T06:11:59;34.57;;;25.90;;
21593;SDS011;10959;51.328;7.322;2023-04-29T06:14:28;32.33;;;25.87;;
21593;SDS011;10959;51.328;7.322;2023-04-29T06:16:54;32.37;;;25.83;;
21593;SDS011;10959;51.328;7.322;2023-04-29T06:19:21;32.40;;;26.37;;
21593;SDS011;10959;51.328;7.322;2023-04-29T06:21:49;30.33;;;25.63;;
21593;SDS011;10959;51.328;7.322;2023-04-29T06:24:15;32.67;;;26.60;;
21593;SDS011;10959;51.328;7.322;2023-04-29T06:26:42;33.97;;;28.03;;
21593;SDS011;10959;51.328;7.322;2023-04-29T06:29:08;31.83;;;27.50;;
21593;SDS011;10959;51.328;7.322;2023-04-29T06:31:36;29.83;;;25.20;;
21593;SDS011;10959;51.328;7.322;2023-04-29T06:34:03;28.67;;;22.83;;
21593;SDS011;10959;51.328;7.322;2023-04-29T06:36:29;31.30;;;26.27;;
21593;SDS011;10959;51.328;7.322;2023-04-29T06:38:56;25.80;;;22.60;;
21593;SDS011;10959;51.328;7.322;2023-04-29T06:41:22;27.10;;;22.60;;
21593;SDS011;10959;51.328;7.322;2023-04-29T06:43:49;28.83;;;23.93;;
21593;SDS011;10959;51.328;7.322;2023-04-29T06:46:16;28.67;;;23.10;;
21593;SDS011;10959;51.328;7.322;2023-04-29T06:48:43;28.20;;;23.70;;
21593;SDS011;10959;51.328;7.322;2023-04-29T06:51:10;29.90;;;25.47;;
21593;SDS011;10959;51.328;7.322;2023-04-29T06:53:36;29.80;;;23.50;;
21593;SDS011;10959;51.328;7.322;2023-04-29T06:56:03;26.53;;;21.50;;
21593;SDS011;10959;51.328;7.322;2023-04-29T06:58:30;28.27;;;22.50;;
21593;SDS011;10959;51.328;7.322;2023-04-29T07:00:57;28.63;;;22.10;;
21593;SDS011;10959;51.328;7.322;2023-04-29T07:03:23;28.00;;;22.00;;
21593;SDS011;10959;51.328;7.322;2023-04-29T07:05:51;27.30;;;23.37;;
21593;SDS011;10959;51.328;7.322;2023-04-29T07:08:17;31.03;;;25.17;;
21593;SDS011;10959;51.328;7.322;2023-04-29T07:10:48;24.50;;;20.87;;
21593;SDS011;10959;51.328;7.322;2023-04-29T07:13:18;30.60;;;24.13;;
21593;SDS011;10959;51.328;7.322;2023-04-29T07:15:45;26.17;;;23.37;;
21593;SDS011;10959;51.328;7.322;2023-04-29T07:18:11;26.80;;;22.83;;
21593;SDS011;10959;51.328;7.322;2023-04-29T07:20:38;27.33;;;21.67;;
21593;SDS011;10959;51.328;7.322;2023-04-29T07:23:06;28.20;;;24.43;;
21593;SDS011;10959;51.328;7.322;2023-04-29T07:25:32;26.13;;;22.93;;
21593;SDS011;10959;51.328;7.322;2023-04-29T07:27:58;29.60;;;25.60;;
21593;SDS011;10959;51.328;7.322;2023-04-29T07:30:25;29.40;;;25.97;;
21593;SDS011;10959;51.328;7.322;2023-04-29T07:32:51;27.60;;;24.60;;
21593;SDS011;10959;51.328;7.322;2023-04-29T07:35:18;31.37;;;26.03;;
21593;SDS011;10959;51.328;7.322;2023-04-29T07:37:44;30.53;;;24.57;;
21593;SDS011;10959;51.328;7.322;2023-04-29T07:40:12;30.67;;;25.23;;
21593;SDS011;10959;51.328;7.322;2023-04-29T07:42:39;33.13;;;29.07;;
21593;SDS011;10959;51.328;7.322;2023-04-29T07:45:06;32.17;;;28.27;;
21593;SDS011;10959;51.328;7.322;2023-04-29T07:47:33;29.73;;;25.97;;
21593;SDS011;10959;51.328;7.322;2023-04-29T07:49:59;28.50;;;24.77;;
21593;SDS011;10959;51.328;7.322;2023-04-29T07:52:25;30.73;;;27.43;;
21593;SDS011;10959;51.328;7.322;2023-04-29T07:54:52;32.43;;;27.33;;
21593;SDS011;10959;51.328;7.322;2023-04-29T07:57:21;38.40;;;31.90;;
21593;SDS011;10959;51.328;7.322;2023-04-29T07:59:49;36.07;;;31.17;;
21593;SDS011;10959;51.328;7.322;2023-04-29T08:02:16;36.80;;;30.93;;
21593;SDS011;10959;51.328;7.322;2023-04-29T08:04:43;31.37;;;26.50;;
21593;SDS011;10959;51.328;7.322;2023-04-29T08:07:10;32.57;;;27.23;;
21593;SDS011;10959;51.328;7.322;2023-04-29T08:09:37;29.87;;;24.20;;
21593;SDS011;10959;51.328;7.322;2023-04-29T08:12:03;23.93;;;21.17;;
21593;SDS011;10959;51.328;7.322;2023-04-29T08:14:31;24.03;;;19.53;;
21593;SDS011;10959;51.328;7.322;2023-04-29T08:16:58;21.63;;;18.50;;
21593;SDS011;10959;51.328;7.322;2023-04-29T08:19:24;19.67;;;17.57;;
21593;SDS011;10959;51.328;7.322;2023-04-29T08:21:51;19.00;;;17.00;;
21593;SDS011;10959;51.328;7.322;2023-04-29T08:24:17;17.07;;;15.23;;
21593;SDS011;10959;51.328;7.322;2023-04-29T08:26:44;19.23;;;17.00;;
21593;SDS011;10959;51.328;7.322;2023-04-29T08:29:11;24.23;;;20.20;;
21593;SDS011;10959;51.328;7.322;2023-04-29T08:31:39;21.47;;;18.20;;
21593;SDS011;10959;51.328;7.322;2023-04-29T08:34:05;23.83;;;19.73;;
21593;SDS011;10959;51.328;7.322;2023-04-29T08:36:32;22.23;;;18.03;;
21593;SDS011;10959;51.328;7.322;2023-04-29T08:38:59;20.40;;;18.13;;
21593;SDS011;10959;51.328;7.322;2023-04-29T08:41:25;21.13;;;18.70;;
21593;SDS011;10959;51.328;7.322;2023-04-29T08:43:52;22.40;;;20.00;;
21593;SDS011;10959;51.328;7.322;2023-04-29T08:46:18;22.63;;;20.13;;
21593;SDS011;10959;51.328;7.322;2023-04-29T08:48:47;20.13;;;17.77;;
21593;SDS011;10959;51.328;7.322;2023-04-29T08:51:14;21.93;;;19.53;;
21593;SDS011;10959;51.328;7.322;2023-04-29T08:53:40;25.03;;;19.87;;
21593;SDS011;10959;51.328;7.322;2023-04-29T08:56:08;28.90;;;23.67;;
21593;SDS011;10959;51.328;7.322;2023-04-29T08:58:38;31.07;;;24.83;;
21593;SDS011;10959;51.328;7.322;2023-04-29T09:01:06;26.23;;;21.40;;
21593;SDS011;10959;51.328;7.322;2023-04-29T09:03:35;32.23;;;24.07;;
21593;SDS011;10959;51.328;7.322;2023-04-29T09:06:09;31.73;;;23.57;;
21593;SDS011;10959;51.328;7.322;2023-04-29T09:08:36;34.17;;;25.77;;
21593;SDS011;10959;51.328;7.322;2023-04-29T09:11:03;33.27;;;24.77;;
21593;SDS011;10959;51.328;7.322;2023-04-29T09:13:32;33.50;;;25.87;;
21593;SDS011;10959;51.328;7.322;2023-04-29T09:15:59;34.07;;;26.10;;
21593;SDS011;10959;51.328;7.322;2023-04-29T09:18:41;36.50;;;26.27;;
21593;SDS011;10959;51.328;7.322;2023-04-29T09:21:13;30.27;;;23.67;;
21593;SDS011;10959;51.328;7.322;2023-04-29T09:23:41;35.97;;;26.67;;
21593;SDS011;10959;51.328;7.322;2023-04-29T09:26:08;34.87;;;25.80;;
21593;SDS011;10959;51.328;7.322;2023-04-29T09:28:34;32.03;;;24.17;;
21593;SDS011;10959;51.328;7.322;2023-04-29T09:31:01;40.37;;;27.80;;
21593;SDS011;10959;51.328;7.322;2023-04-29T09:33:30;40.00;;;27.43;;
21593;SDS011;10959;51.328;7.322;2023-04-29T09:35:57;40.27;;;29.37;;
21593;SDS011;10959;51.328;7.322;2023-04-29T09:38:26;39.37;;;27.60;;
21593;SDS011;10959;51.328;7.322;2023-04-29T09:40:52;40.37;;;30.47;;
21593;SDS011;10959;51.328;7.322;2023-04-29T09:43:20;39.57;;;28.63;;
21593;SDS011;10959;51.328;7.322;2023-04-29T09:45:47;41.93;;;29.53;;
21593;SDS011;10959;51.328;7.322;2023-04-29T09:48:14;48.23;;;30.33;;
21593;SDS011;10959;51.328;7.322;2023-04-29T09:50:42;45.40;;;33.43;;
21593;SDS011;10959;51.328;7.322;2023-04-29T09:53:11;49.23;;;33.43;;
21593;SDS011;10959;51.328;7.322;2023-04-29T09:55:58;49.57;;;31.90;;
21593;SDS011;10959;51.328;7.322;2023-04-29T09:58:27;44.00;;;31.67;;
21593;SDS011;10959;51.328;7.322;2023-04-29T10:00:55;43.43;;;31.63;;
21593;SDS011;10959;51.328;7.322;2023-04-29T10:03:24;46.27;;;31.90;;
21593;SDS011;10959;51.328;7.322;2023-04-29T10:05:53;49.47;;;33.83;;
21593;SDS011;10959;51.328;7.322;2023-04-29T10:08:20;47.83;;;32.97;;
21593;SDS011;10959;51.328;7.322;2023-04-29T10:10:48;46.00;;;32.10;;
21593;SDS011;10959;51.328;7.322;2023-04-29T10:13:21;49.00;;;31.50;;
21593;SDS011;10959;51.328;7.322;2023-04-29T10:15:48;46.23;;;30.93;;
21593;SDS011;10959;51.328;7.322;2023-04-29T10:18:25;52.80;;;33.60;;
21593;SDS011;10959;51.328;7.322;2023-04-29T10:20:55;43.37;;;28.37;;
21593;SDS011;10959;51.328;7.322;2023-04-29T10:23:26;46.93;;;31.00;;
21593;SDS011;10959;51.328;7.322;2023-04-29T10:25:56;42.07;;;31.03;;
21593;SDS011;10959;51.328;7.322;2023-04-29T10:28:27;46.73;;;29.07;;
21593;SDS011;10959;51.328;7.322;2023-04-29T10:30:57;46.33;;;30.57;;
21593;SDS011;10959;51.328;7.322;2023-04-29T10:33:27;50.60;;;33.87;;
21593;SDS011;10959;51.328;7.322;2023-04-29T10:35:56;42.00;;;29.70;;
21593;SDS011;10959;51.328;7.322;2023-04-29T10:38:26;43.27;;;29.53;;
21593;SDS011;10959;51.328;7.322;2023-04-29T10:40:57;45.07;;;32.70;;
21593;SDS011;10959;51.328;7.322;2023-04-29T10:43:28;49.63;;;32.27;;
21593;SDS011;10959;51.328;7.322;2023-04-29T10:48:43;47.63;;;32.67;;
21593;SDS011;10959;51.328;7.322;2023-04-29T10:51:10;44.40;;;30.70;;
21593;SDS011;10959;51.328;7.322;2023-04-29T10:56:35;43.00;;;29.77;;
21593;SDS011;10959;51.328;7.322;2023-04-29T10:59:03;37.70;;;27.83;;
21593;SDS011;10959;51.328;7.322;2023-04-29T11:01:39;39.07;;;28.00;;
21593;SDS011;10959;51.328;7.322;2023-04-29T11:04:10;41.53;;;30.00;;
21593;SDS011;10959;51.328;7.322;2023-04-29T11:06:37;43.07;;;31.10;;
21593;SDS011;10959;51.328;7.322;2023-04-29T11:09:07;39.13;;;28.27;;
21593;SDS011;10959;51.328;7.322;2023-04-29T11:11:40;40.70;;;31.00;;
21593;SDS011;10959;51.328;7.322;2023-04-29T11:14:20;37.80;;;30.70;;
21593;SDS011;10959;51.328;7.322;2023-04-29T11:16:50;33.37;;;28.73;;
21593;SDS011;10959;51.328;7.322;2023-04-29T11:19:17;40.00;;;29.23;;
21593;SDS011;10959;51.328;7.322;2023-04-29T11:21:44;40.50;;;30.23;;
21593;SDS011;10959;51.328;7.322;2023-04-29T11:24:12;39.10;;;31.27;;
21593;SDS011;10959;51.328;7.322;2023-04-29T11:26:41;40.83;;;28.37;;
21593;SDS011;10959;51.328;7.322;2023-04-29T11:29:08;38.47;;;30.77;;
21593;SDS011;10959;51.328;7.322;2023-04-29T11:31:35;32.77;;;26.73;;
21593;SDS011;10959;51.328;7.322;2023-04-29T11:34:03;36.57;;;29.17;;
21593;SDS011;10959;51.328;7.322;2023-04-29T11:36:30;33.20;;;26.73;;
21593;SDS011;10959;51.328;7.322;2023-04-29T11:38:58;31.83;;;25.13;;
21593;SDS011;10959;51.328;7.322;2023-04-29T11:41:25;32.57;;;27.37;;
21593;SDS011;10959;51.328;7.322;2023-04-29T11:43:55;34.67;;;26.70;;
21593;SDS011;10959;51.328;7.322;2023-04-29T11:46:22;30.70;;;27.10;;
21593;SDS011;10959;51.328;7.322;2023-04-29T11:48:50;34.83;;;29.07;;
21593;SDS011;10959;51.328;7.322;2023-04-29T11:51:17;33.67;;;26.27;;
21593;SDS011;10959;51.328;7.322;2023-04-29T11:53:44;27.77;;;24.07;;
21593;SDS011;10959;51.328;7.322;2023-04-29T11:56:11;30.40;;;22.63;;
21593;SDS011;10959;51.328;7.322;2023-04-29T11:58:38;31.70;;;24.50;;
21593;SDS011;10959;51.328;7.322;2023-04-29T12:01:06;30.37;;;25.93;;
21593;SDS011;10959;51.328;7.322;2023-04-29T12:03:33;28.17;;;22.13;;
21593;SDS011;10959;51.328;7.322;2023-04-29T12:06:00;26.63;;;21.50;;
21593;SDS011;10959;51.328;7.322;2023-04-29T12:08:27;25.73;;;22.87;;
21593;SDS011;10959;51.328;7.322;2023-04-29T12:10:55;25.60;;;22.67;;
21593;SDS011;10959;51.328;7.322;2023-04-29T12:13:24;23.57;;;20.87;;
21593;SDS011;10959;51.328;7.322;2023-04-29T12:15:52;24.33;;;19.43;;
21593;SDS011;10959;51.328;7.322;2023-04-29T12:18:20;26.37;;;19.57;;
21593;SDS011;10959;51.328;7.322;2023-04-29T12:20:47;21.13;;;17.77;;
21593;SDS011;10959;51.328;7.322;2023-04-29T12:23:16;21.03;;;18.00;;
21593;SDS011;10959;51.328;7.322;2023-04-29T12:25:46;24.90;;;18.57;;
21593;SDS011;10959;51.328;7.322;2023-04-29T12:28:14;21.63;;;17.20;;
21593;SDS011;10959;51.328;7.322;2023-04-29T12:30:42;19.87;;;17.77;;
21593;SDS011;10959;51.328;7.322;2023-04-29T12:33:09;23.37;;;19.37;;
21593;SDS011;10959;51.328;7.322;2023-04-29T12:35:37;21.73;;;19.33;;
21593;SDS011;10959;51.328;7.322;2023-04-29T12:38:03;20.90;;;18.40;;
21593;SDS011;10959;51.328;7.322;2023-04-29T12:40:30;21.53;;;17.30;;
21593;SDS011;10959;51.328;7.322;2023-04-29T12:42:58;21.13;;;17.40;;
21593;SDS011;10959;51.328;7.322;2023-04-29T12:45:32;18.00;;;16.20;;
21593;SDS011;10959;51.328;7.322;2023-04-29T12:47:59;20.87;;;17.63;;
21593;SDS011;10959;51.328;7.322;2023-04-29T12:50:28;23.10;;;20.53;;
21593;SDS011;10959;51.328;7.322;2023-04-29T12:52:59;19.30;;;17.30;;
21593;SDS011;10959;51.328;7.322;2023-04-29T12:55:27;20.50;;;18.27;;
21593;SDS011;10959;51.328;7.322;2023-04-29T12:57:54;20.90;;;18.73;;
21593;SDS011;10959;51.328;7.322;2023-04-29T13:00:20;17.67;;;15.53;;
21593;SDS011;10959;51.328;7.322;2023-04-29T13:02:47;19.47;;;17.23;;
21593;SDS011;10959;51.328;7.322;2023-04-29T13:05:13;19.60;;;17.43;;
21593;SDS011;10959;51.328;7.322;2023-04-29T13:07:40;19.17;;;17.00;;
21593;SDS011;10959;51.328;7.322;2023-04-29T13:10:09;18.70;;;16.77;;
21593;SDS011;10959;51.328;7.322;2023-04-29T13:12:37;19.03;;;17.03;;
21593;SDS011;10959;51.328;7.322;2023-04-29T13:15:04;18.50;;;14.50;;
21593;SDS011;10959;51.328;7.322;2023-04-29T13:17:33;17.07;;;15.37;;
21593;SDS011;10959;51.328;7.322;2023-04-29T13:20:00;16.93;;;15.23;;
21593;SDS011;10959;51.328;7.322;2023-04-29T13:22:27;16.13;;;14.43;;
21593;SDS011;10959;51.328;7.322;2023-04-29T13:24:53;17.33;;;15.53;;
21593;SDS011;10959;51.328;7.322;2023-04-29T13:27:21;16.10;;;14.50;;
21593;SDS011;10959;51.328;7.322;2023-04-29T13:29:48;18.23;;;16.20;;
21593;SDS011;10959;51.328;7.322;2023-04-29T13:32:14;15.77;;;14.27;;
21593;SDS011;10959;51.328;7.322;2023-04-29T13:34:41;16.27;;;14.63;;
21593;SDS011;10959;51.328;7.322;2023-04-29T13:37:09;17.03;;;15.23;;
21593;SDS011;10959;51.328;7.322;2023-04-29T13:39:35;15.20;;;13.57;;
21593;SDS011;10959;51.328;7.322;2023-04-29T13:42:02;13.73;;;12.27;;
21593;SDS011;10959;51.328;7.322;2023-04-29T13:44:30;14.40;;;12.97;;
21593;SDS011;10959;51.328;7.322;2023-04-29T13:46:56;15.30;;;13.27;;
21593;SDS011;10959;51.328;7.322;2023-04-29T13:49:23;14.93;;;13.40;;
21593;SDS011;10959;51.328;7.322;2023-04-29T13:51:51;15.90;;;14.20;;
21593;SDS011;10959;51.328;7.322;2023-04-29T13:54:17;14.60;;;13.07;;
21593;SDS011;10959;51.328;7.322;2023-04-29T13:56:45;14.83;;;13.00;;
21593;SDS011;10959;51.328;7.322;2023-04-29T13:59:11;13.33;;;12.13;;
21593;SDS011;10959;51.328;7.322;2023-04-29T14:01:39;12.80;;;11.60;;
21593;SDS011;10959;51.328;7.322;2023-04-29T14:04:05;10.87;;;9.77;;
21593;SDS011;10959;51.328;7.322;2023-04-29T14:06:32;11.10;;;10.00;;
21593;SDS011;10959;51.328;7.322;2023-04-29T14:08:58;11.00;;;9.90;;
21593;SDS011;10959;51.328;7.322;2023-04-29T14:11:25;11.97;;;10.77;;
21593;SDS011;10959;51.328;7.322;2023-04-29T14:13:52;18.23;;;14.43;;
21593;SDS011;10959;51.328;7.322;2023-04-29T14:16:19;16.60;;;14.77;;
21593;SDS011;10959;51.328;7.322;2023-04-29T14:18:47;16.37;;;14.87;;
21593;SDS011;10959;51.328;7.322;2023-04-29T14:21:13;16.90;;;15.13;;
21593;SDS011;10959;51.328;7.322;2023-04-29T14:23:40;18.50;;;16.30;;
21593;SDS011;10959;51.328;7.322;2023-04-29T14:26:06;19.07;;;16.07;;
21593;SDS011;10959;51.328;7.322;2023-04-29T14:28:33;17.43;;;15.70;;